sensor_id;sensor_type;location;lat;lon;timestamp;pressure;altitude;pressure_sealevel;temperature;humidity
85683;BME280;76253;52.232;5.176;2024-02-23T00:01:51;98581.06;;;3.64;96.08
85683;BME280;76253;52.232;5.176;2024-02-23T00:04:17;98599.47;;;3.80;95.85
85683;BME280;76253;52.232;5.176;2024-02-23T00:06:44;98612.72;;;3.87;96.14
85683;BME280;76253;52.232;5.176;2024-02-23T00:09:09;98613.44;;;3.89;95.89
85683;BME280;76253;52.232;5.176;2024-02-23T00:11:35;98620.88;;;4.02;96.31
85683;BME280;76253;52.232;5.176;2024-02-23T00:14:05;98628.38;;;4.05;96.11
85683;BME280;76253;52.232;5.176;2024-02-23T00:16:30;98633.59;;;4.05;95.74
85683;BME280;76253;52.232;5.176;2024-02-23T00:18:55;98633.84;;;4.11;95.55
85683;BME280;76253;52.232;5.176;2024-02-23T00:21:21;98642.63;;;4.10;95.71
85683;BME280;76253;52.232;5.176;2024-02-23T00:23:48;98638.09;;;4.12;95.62
85683;BME280;76253;52.232;5.176;2024-02-23T00:26:14;98650.28;;;4.12;95.41
85683;BME280;76253;52.232;5.176;2024-02-23T00:28:46;98656.03;;;4.15;95.44
85683;BME280;76253;52.232;5.176;2024-02-23T00:31:11;98641.66;;;4.11;95.07
85683;BME280;76253;52.232;5.176;2024-02-23T00:33:36;98644.94;;;4.13;95.08
85683;BME280;76253;52.232;5.176;2024-02-23T00:36:03;98646.81;;;4.21;94.69
85683;BME280;76253;52.232;5.176;2024-02-23T00:38:31;98653.41;;;4.15;94.68
85683;BME280;76253;52.232;5.176;2024-02-23T00:40:56;98648.66;;;4.11;94.40
85683;BME280;76253;52.232;5.176;2024-02-23T00:43:21;98649.47;;;4.11;94.46
85683;BME280;76253;52.232;5.176;2024-02-23T00:45:49;98652.97;;;4.20;94.15
85683;BME280;76253;52.232;5.176;2024-02-23T00:48:14;98649.72;;;4.18;94.48
85683;BME280;76253;52.232;5.176;2024-02-23T00:50:40;98646.59;;;4.14;94.73
85683;BME280;76253;52.232;5.176;2024-02-23T00:53:09;98668.78;;;4.18;94.39
85683;BME280;76253;52.232;5.176;2024-02-23T00:55:34;98677.25;;;4.20;94.14
85683;BME280;76253;52.232;5.176;2024-02-23T00:57:59;98675.91;;;4.16;93.97
85683;BME280;76253;52.232;5.176;2024-02-23T01:00:25;98687.28;;;4.15;94.09
85683;BME280;76253;52.232;5.176;2024-02-23T01:02:50;98688.78;;;4.18;94.25
85683;BME280;76253;52.232;5.176;2024-02-23T01:05:17;98685.06;;;4.20;94.15
85683;BME280;76253;52.232;5.176;2024-02-23T01:07:42;98679.34;;;4.17;94.17
85683;BME280;76253;52.232;5.176;2024-02-23T01:10:08;98681.94;;;4.17;93.93
85683;BME280;76253;52.232;5.176;2024-02-23T01:12:35;98683.16;;;4.22;94.03
85683;BME280;76253;52.232;5.176;2024-02-23T01:15:00;98691.41;;;4.18;93.95
85683;BME280;76253;52.232;5.176;2024-02-23T01:17:26;98703.84;;;4.24;93.70
85683;BME280;76253;52.232;5.176;2024-02-23T01:19:51;98698.78;;;4.22;94.01
85683;BME280;76253;52.232;5.176;2024-02-23T01:22:17;98708.47;;;4.30;94.06
85683;BME280;76253;52.232;5.176;2024-02-23T01:24:43;98717.09;;;4.30;93.83
85683;BME280;76253;52.232;5.176;2024-02-23T01:27:08;98723.13;;;4.31;93.61
85683;BME280;76253;52.232;5.176;2024-02-23T01:29:34;98726.25;;;4.34;93.66
85683;BME280;76253;52.232;5.176;2024-02-23T01:32:00;98725.16;;;4.37;93.36
85683;BME280;76253;52.232;5.176;2024-02-23T01:34:25;98743.09;;;4.40;93.47
85683;BME280;76253;52.232;5.176;2024-02-23T01:36:50;98730.81;;;4.32;92.97
85683;BME280;76253;52.232;5.176;2024-02-23T01:39:16;98741.25;;;4.32;92.98
85683;BME280;76253;52.232;5.176;2024-02-23T01:41:41;98744.41;;;4.26;92.78
85683;BME280;76253;52.232;5.176;2024-02-23T01:44:09;98751.84;;;4.21;92.52
85683;BME280;76253;52.232;5.176;2024-02-23T01:46:35;98741.03;;;4.16;92.70
85683;BME280;76253;52.232;5.176;2024-02-23T01:49:01;98745.41;;;4.16;92.71
85683;BME280;76253;52.232;5.176;2024-02-23T01:51:26;98750.78;;;4.14;92.56
85683;BME280;76253;52.232;5.176;2024-02-23T01:53:52;98752.69;;;4.12;91.97
85683;BME280;76253;52.232;5.176;2024-02-23T01:56:17;98754.47;;;4.12;92.50
85683;BME280;76253;52.232;5.176;2024-02-23T01:58:45;98761.06;;;4.06;92.32
85683;BME280;76253;52.232;5.176;2024-02-23T02:01:11;98760.41;;;4.04;92.16
85683;BME280;76253;52.232;5.176;2024-02-23T02:03:38;98770.84;;;4.04;91.68
85683;BME280;76253;52.232;5.176;2024-02-23T02:06:09;98776.31;;;4.01;91.85
85683;BME280;76253;52.232;5.176;2024-02-23T02:08:34;98779.88;;;4.00;91.67
85683;BME280;76253;52.232;5.176;2024-02-23T02:11:00;98773.47;;;3.95;91.83
85683;BME280;76253;52.232;5.176;2024-02-23T02:13:25;98776.75;;;3.87;91.75
85683;BME280;76253;52.232;5.176;2024-02-23T02:15:50;98769.50;;;3.81;91.47
85683;BME280;76253;52.232;5.176;2024-02-23T02:18:16;98771.28;;;3.80;91.33
85683;BME280;76253;52.232;5.176;2024-02-23T02:20:56;98765.94;;;3.82;91.06
85683;BME280;76253;52.232;5.176;2024-02-23T02:23:22;98770.47;;;3.80;91.28
85683;BME280;76253;52.232;5.176;2024-02-23T02:25:55;98775.84;;;3.78;92.08
85683;BME280;76253;52.232;5.176;2024-02-23T02:28:21;98782.81;;;3.78;92.28
85683;BME280;76253;52.232;5.176;2024-02-23T02:30:46;98783.63;;;3.78;91.92
85683;BME280;76253;52.232;5.176;2024-02-23T02:33:12;98782.00;;;3.77;92.46
85683;BME280;76253;52.232;5.176;2024-02-23T02:35:37;98780.75;;;3.72;92.74
85683;BME280;76253;52.232;5.176;2024-02-23T02:38:02;98787.09;;;3.69;92.75
85683;BME280;76253;52.232;5.176;2024-02-23T02:40:27;98790.25;;;3.63;93.21
85683;BME280;76253;52.232;5.176;2024-02-23T02:42:53;98788.88;;;3.59;93.12
85683;BME280;76253;52.232;5.176;2024-02-23T02:45:19;98789.13;;;3.56;93.62
85683;BME280;76253;52.232;5.176;2024-02-23T02:47:45;98790.38;;;3.52;93.49
85683;BME280;76253;52.232;5.176;2024-02-23T02:50:10;98792.31;;;3.50;93.85
85683;BME280;76253;52.232;5.176;2024-02-23T02:52:35;98795.59;;;3.52;93.98
85683;BME280;76253;52.232;5.176;2024-02-23T02:55:01;98801.19;;;3.57;93.42
85683;BME280;76253;52.232;5.176;2024-02-23T02:57:26;98798.19;;;3.62;93.69
85683;BME280;76253;52.232;5.176;2024-02-23T02:59:52;98800.22;;;3.68;93.67
85683;BME280;76253;52.232;5.176;2024-02-23T03:02:18;98795.56;;;3.71;93.80
85683;BME280;76253;52.232;5.176;2024-02-23T03:04:49;98802.28;;;3.74;94.18
85683;BME280;76253;52.232;5.176;2024-02-23T03:07:16;98811.16;;;3.81;94.20
85683;BME280;76253;52.232;5.176;2024-02-23T03:09:41;98817.72;;;3.85;93.73
85683;BME280;76253;52.232;5.176;2024-02-23T03:12:07;98804.47;;;3.78;94.12
85683;BME280;76253;52.232;5.176;2024-02-23T03:14:32;98810.75;;;3.76;93.98
85683;BME280;76253;52.232;5.176;2024-02-23T03:16:59;98808.44;;;3.73;94.33
85683;BME280;76253;52.232;5.176;2024-02-23T03:19:24;98813.38;;;3.76;93.56
85683;BME280;76253;52.232;5.176;2024-02-23T03:21:50;98815.13;;;3.75;93.97
85683;BME280;76253;52.232;5.176;2024-02-23T03:24:16;98801.16;;;3.76;94.06
85683;BME280;76253;52.232;5.176;2024-02-23T03:26:41;98807.06;;;3.78;93.51
85683;BME280;76253;52.232;5.176;2024-02-23T03:29:07;98823.66;;;3.77;93.59
85683;BME280;76253;52.232;5.176;2024-02-23T03:31:32;98829.13;;;3.74;93.73
85683;BME280;76253;52.232;5.176;2024-02-23T03:33:57;98830.91;;;3.74;93.28
85683;BME280;76253;52.232;5.176;2024-02-23T03:36:24;98825.16;;;3.70;93.59
85683;BME280;76253;52.232;5.176;2024-02-23T03:38:50;98839.28;;;3.68;93.69
85683;BME280;76253;52.232;5.176;2024-02-23T03:41:15;98845.03;;;3.71;94.06
85683;BME280;76253;52.232;5.176;2024-02-23T03:43:42;98832.72;;;3.64;93.69
85683;BME280;76253;52.232;5.176;2024-02-23T03:46:07;98835.16;;;3.56;93.90
85683;BME280;76253;52.232;5.176;2024-02-23T03:48:32;98840.22;;;3.57;93.76
85683;BME280;76253;52.232;5.176;2024-02-23T03:50:59;98839.00;;;3.52;94.02
85683;BME280;76253;52.232;5.176;2024-02-23T03:53:24;98843.38;;;3.51;93.61
85683;BME280;76253;52.232;5.176;2024-02-23T03:55:50;98853.38;;;3.46;93.67
85683;BME280;76253;52.232;5.176;2024-02-23T03:58:16;98854.34;;;3.45;94.08
85683;BME280;76253;52.232;5.176;2024-02-23T04:00:43;98836.53;;;3.40;93.47
85683;BME280;76253;52.232;5.176;2024-02-23T04:03:08;98839.53;;;3.36;94.01
85683;BME280;76253;52.232;5.176;2024-02-23T04:05:34;98838.03;;;3.33;93.55
85683;BME280;76253;52.232;5.176;2024-02-23T04:08:00;98840.94;;;3.30;93.92
85683;BME280;76253;52.232;5.176;2024-02-23T04:10:25;98832.41;;;3.19;94.38
85683;BME280;76253;52.232;5.176;2024-02-23T04:12:51;98846.78;;;3.23;94.25
85683;BME280;76253;52.232;5.176;2024-02-23T04:15:16;98856.13;;;3.25;93.92
85683;BME280;76253;52.232;5.176;2024-02-23T04:17:42;98864.16;;;3.22;94.26
85683;BME280;76253;52.232;5.176;2024-02-23T04:20:08;98854.19;;;3.18;94.14
85683;BME280;76253;52.232;5.176;2024-02-23T04:22:37;98866.34;;;3.17;94.25
85683;BME280;76253;52.232;5.176;2024-02-23T04:25:05;98865.53;;;3.17;94.62
85683;BME280;76253;52.232;5.176;2024-02-23T04:27:31;98872.09;;;3.21;94.34
85683;BME280;76253;52.232;5.176;2024-02-23T04:29:58;98880.88;;;3.20;94.73
85683;BME280;76253;52.232;5.176;2024-02-23T04:32:23;98878.41;;;3.18;94.43
85683;BME280;76253;52.232;5.176;2024-02-23T04:34:49;98882.25;;;3.14;94.34
85683;BME280;76253;52.232;5.176;2024-02-23T04:37:14;98891.97;;;3.22;94.26
85683;BME280;76253;52.232;5.176;2024-02-23T04:39:39;98890.31;;;3.21;94.47
85683;BME280;76253;52.232;5.176;2024-02-23T04:42:08;98891.72;;;3.25;94.24
85683;BME280;76253;52.232;5.176;2024-02-23T04:44:35;98885.94;;;3.21;94.79
85683;BME280;76253;52.232;5.176;2024-02-23T04:47:01;98882.91;;;3.26;94.40
85683;BME280;76253;52.232;5.176;2024-02-23T04:49:27;98894.03;;;3.28;95.00
85683;BME280;76253;52.232;5.176;2024-02-23T04:51:53;98886.78;;;3.31;94.90
85683;BME280;76253;52.232;5.176;2024-02-23T04:54:18;98880.19;;;3.27;94.24
85683;BME280;76253;52.232;5.176;2024-02-23T04:56:44;98891.97;;;3.31;94.47
85683;BME280;76253;52.232;5.176;2024-02-23T04:59:09;98890.47;;;3.29;94.23
85683;BME280;76253;52.232;5.176;2024-02-23T05:01:36;98871.03;;;3.33;94.26
85683;BME280;76253;52.232;5.176;2024-02-23T05:04:02;98894.75;;;3.39;94.50
85683;BME280;76253;52.232;5.176;2024-02-23T05:06:28;98879.81;;;3.41;94.54
85683;BME280;76253;52.232;5.176;2024-02-23T05:08:53;98883.78;;;3.45;94.40
85683;BME280;76253;52.232;5.176;2024-02-23T05:11:20;98876.66;;;3.47;94.32
85683;BME280;76253;52.232;5.176;2024-02-23T05:13:45;98883.22;;;3.52;94.52
85683;BME280;76253;52.232;5.176;2024-02-23T05:16:11;98881.22;;;3.55;94.61
85683;BME280;76253;52.232;5.176;2024-02-23T05:18:38;98882.16;;;3.54;94.77
85683;BME280;76253;52.232;5.176;2024-02-23T05:21:03;98885.84;;;3.61;94.54
85683;BME280;76253;52.232;5.176;2024-02-23T05:23:29;98868.19;;;3.55;94.48
85683;BME280;76253;52.232;5.176;2024-02-23T05:25:55;98884.34;;;3.68;94.13
85683;BME280;76253;52.232;5.176;2024-02-23T05:28:21;98884.75;;;3.73;94.63
85683;BME280;76253;52.232;5.176;2024-02-23T05:30:46;98891.47;;;3.76;94.18
85683;BME280;76253;52.232;5.176;2024-02-23T05:33:11;98882.69;;;3.77;94.55
85683;BME280;76253;52.232;5.176;2024-02-23T05:35:37;98884.22;;;3.79;94.48
85683;BME280;76253;52.232;5.176;2024-02-23T05:38:02;98887.91;;;3.86;94.08
85683;BME280;76253;52.232;5.176;2024-02-23T05:40:27;98884.22;;;3.89;93.73
85683;BME280;76253;52.232;5.176;2024-02-23T05:42:53;98892.69;;;3.91;94.31
85683;BME280;76253;52.232;5.176;2024-02-23T05:45:20;98890.38;;;3.88;93.83
85683;BME280;76253;52.232;5.176;2024-02-23T05:47:47;98877.78;;;3.83;93.92
85683;BME280;76253;52.232;5.176;2024-02-23T05:50:18;98884.88;;;3.91;93.59
85683;BME280;76253;52.232;5.176;2024-02-23T05:52:45;98885.84;;;3.90;93.61
85683;BME280;76253;52.232;5.176;2024-02-23T05:55:10;98879.13;;;3.87;94.16
85683;BME280;76253;52.232;5.176;2024-02-23T05:57:36;98886.41;;;3.94;94.12
85683;BME280;76253;52.232;5.176;2024-02-23T06:00:02;98877.75;;;3.93;94.05
85683;BME280;76253;52.232;5.176;2024-02-23T06:02:28;98878.72;;;3.92;93.84
85683;BME280;76253;52.232;5.176;2024-02-23T06:04:53;98883.38;;;3.98;93.65
85683;BME280;76253;52.232;5.176;2024-02-23T06:07:19;98876.38;;;3.99;93.55
85683;BME280;76253;52.232;5.176;2024-02-23T06:09:47;98882.25;;;4.01;93.53
85683;BME280;76253;52.232;5.176;2024-02-23T06:12:13;98884.59;;;4.04;93.71
85683;BME280;76253;52.232;5.176;2024-02-23T06:14:38;98876.78;;;4.04;93.84
85683;BME280;76253;52.232;5.176;2024-02-23T06:17:04;98887.22;;;4.04;93.48
85683;BME280;76253;52.232;5.176;2024-02-23T06:19:31;98891.19;;;4.08;93.31
85683;BME280;76253;52.232;5.176;2024-02-23T06:21:57;98893.78;;;4.08;93.86
85683;BME280;76253;52.232;5.176;2024-02-23T06:24:22;98888.56;;;4.08;93.36
85683;BME280;76253;52.232;5.176;2024-02-23T06:26:47;98904.72;;;4.11;93.14
85683;BME280;76253;52.232;5.176;2024-02-23T06:29:14;98901.31;;;4.11;93.18
85683;BME280;76253;52.232;5.176;2024-02-23T06:31:40;98895.44;;;4.09;93.49
85683;BME280;76253;52.232;5.176;2024-02-23T06:34:06;98909.69;;;4.14;93.56
85683;BME280;76253;52.232;5.176;2024-02-23T06:36:32;98905.13;;;4.16;93.66
85683;BME280;76253;52.232;5.176;2024-02-23T06:38:57;98898.16;;;4.17;93.15
85683;BME280;76253;52.232;5.176;2024-02-23T06:41:27;98903.34;;;4.17;93.07
85683;BME280;76253;52.232;5.176;2024-02-23T06:43:54;98899.09;;;4.16;92.85
85683;BME280;76253;52.232;5.176;2024-02-23T06:46:21;98898.16;;;4.17;93.15
85683;BME280;76253;52.232;5.176;2024-02-23T06:48:47;98898.84;;;4.19;93.28
85683;BME280;76253;52.232;5.176;2024-02-23T06:51:13;98888.03;;;4.14;92.98
85683;BME280;76253;52.232;5.176;2024-02-23T06:53:42;98896.50;;;4.16;93.11
85683;BME280;76253;52.232;5.176;2024-02-23T06:56:08;98897.31;;;4.16;92.88
85683;BME280;76253;52.232;5.176;2024-02-23T06:58:34;98900.75;;;4.17;92.99
85683;BME280;76253;52.232;5.176;2024-02-23T07:00:59;98910.06;;;4.19;93.11
85683;BME280;76253;52.232;5.176;2024-02-23T07:03:26;98898.16;;;4.17;92.50
85683;BME280;76253;52.232;5.176;2024-02-23T07:05:51;98901.44;;;4.19;92.33
85683;BME280;76253;52.232;5.176;2024-02-23T07:08:17;98906.38;;;4.22;92.29
85683;BME280;76253;52.232;5.176;2024-02-23T07:10:43;98897.59;;;4.23;92.49
85683;BME280;76253;52.232;5.176;2024-02-23T07:13:08;98907.72;;;4.26;92.31
85683;BME280;76253;52.232;5.176;2024-02-23T07:15:34;98897.44;;;4.24;91.64
85683;BME280;76253;52.232;5.176;2024-02-23T07:18:01;98911.56;;;4.31;91.86
85683;BME280;76253;52.232;5.176;2024-02-23T07:20:26;98899.34;;;4.32;91.94
85683;BME280;76253;52.232;5.176;2024-02-23T07:22:52;98899.06;;;4.35;91.77
85683;BME280;76253;52.232;5.176;2024-02-23T07:25:18;98904.41;;;4.43;91.59
85683;BME280;76253;52.232;5.176;2024-02-23T07:27:48;98900.69;;;4.46;91.69
85683;BME280;76253;52.232;5.176;2024-02-23T07:30:17;98902.63;;;4.44;91.91
85683;BME280;76253;52.232;5.176;2024-02-23T07:32:43;98909.19;;;4.48;91.05
85683;BME280;76253;52.232;5.176;2024-02-23T07:35:09;98905.91;;;4.46;90.86
85683;BME280;76253;52.232;5.176;2024-02-23T07:37:36;98900.56;;;4.47;91.43
85683;BME280;76253;52.232;5.176;2024-02-23T07:40:02;98892.72;;;4.47;91.20
85683;BME280;76253;52.232;5.176;2024-02-23T07:42:32;98900.38;;;4.58;91.10
85683;BME280;76253;52.232;5.176;2024-02-23T07:44:57;98872.53;;;4.49;90.51
85683;BME280;76253;52.232;5.176;2024-02-23T07:47:23;98888.31;;;4.57;90.18
85683;BME280;76253;52.232;5.176;2024-02-23T07:49:49;98887.88;;;4.62;89.76
85683;BME280;76253;52.232;5.176;2024-02-23T07:52:14;98879.09;;;4.63;90.04
85683;BME280;76253;52.232;5.176;2024-02-23T07:54:40;98876.75;;;4.60;89.55
85683;BME280;76253;52.232;5.176;2024-02-23T07:57:05;98877.97;;;4.65;89.79
85683;BME280;76253;52.232;5.176;2024-02-23T07:59:33;98877.97;;;4.65;90.07
85683;BME280;76253;52.232;5.176;2024-02-23T08:01:59;98873.06;;;4.62;90.15
85683;BME280;76253;52.232;5.176;2024-02-23T08:04:24;98870.03;;;4.67;90.31
85683;BME280;76253;52.232;5.176;2024-02-23T08:06:49;98874.41;;;4.66;90.37
85683;BME280;76253;52.232;5.176;2024-02-23T08:09:16;98872.78;;;4.65;89.97
85683;BME280;76253;52.232;5.176;2024-02-23T08:11:42;98867.94;;;4.70;90.03
85683;BME280;76253;52.232;5.176;2024-02-23T08:14:10;98875.50;;;4.73;90.38
85683;BME280;76253;52.232;5.176;2024-02-23T08:16:36;98860.81;;;4.72;90.28
85683;BME280;76253;52.232;5.176;2024-02-23T08:19:02;98854.91;;;4.70;89.98
85683;BME280;76253;52.232;5.176;2024-02-23T08:21:27;98868.72;;;4.81;90.00
85683;BME280;76253;52.232;5.176;2024-02-23T08:23:54;98864.63;;;4.78;89.47
85683;BME280;76253;52.232;5.176;2024-02-23T08:26:19;98844.78;;;4.67;89.91
85683;BME280;76253;52.232;5.176;2024-02-23T08:28:46;98864.28;;;4.63;90.06
85683;BME280;76253;52.232;5.176;2024-02-23T08:31:11;98870.34;;;4.54;90.04
85683;BME280;76253;52.232;5.176;2024-02-23T08:33:36;98869.28;;;4.47;90.51
85683;BME280;76253;52.232;5.176;2024-02-23T08:36:02;98857.09;;;4.38;90.66
85683;BME280;76253;52.232;5.176;2024-02-23T08:38:32;98852.03;;;4.37;91.36
85683;BME280;76253;52.232;5.176;2024-02-23T08:40:59;98858.06;;;4.37;91.58
85683;BME280;76253;52.232;5.176;2024-02-23T08:43:25;98861.31;;;4.39;91.35
85683;BME280;76253;52.232;5.176;2024-02-23T08:45:51;98850.38;;;4.35;91.62
85683;BME280;76253;52.232;5.176;2024-02-23T08:48:17;98855.31;;;4.39;91.64
85683;BME280;76253;52.232;5.176;2024-02-23T08:50:45;98867.22;;;4.41;91.66
85683;BME280;76253;52.232;5.176;2024-02-23T08:53:11;98863.66;;;4.42;91.68
85683;BME280;76253;52.232;5.176;2024-02-23T08:55:36;98852.16;;;4.35;91.70
85683;BME280;76253;52.232;5.176;2024-02-23T08:58:01;98878.78;;;4.39;91.59
85683;BME280;76253;52.232;5.176;2024-02-23T09:00:27;98856.53;;;4.34;92.28
85683;BME280;76253;52.232;5.176;2024-02-23T09:02:52;98859.97;;;4.35;92.00
85683;BME280;76253;52.232;5.176;2024-02-23T09:05:17;98853.94;;;4.34;91.73
85683;BME280;76253;52.232;5.176;2024-02-23T09:07:43;98855.03;;;4.42;91.60
85683;BME280;76253;52.232;5.176;2024-02-23T09:10:08;98856.13;;;4.49;91.43
85683;BME280;76253;52.232;5.176;2024-02-23T09:12:34;98855.69;;;4.53;91.32
85683;BME280;76253;52.232;5.176;2024-02-23T09:14:59;98858.13;;;4.55;91.20
85683;BME280;76253;52.232;5.176;2024-02-23T09:17:24;98878.28;;;4.62;90.76
85683;BME280;76253;52.232;5.176;2024-02-23T09:19:50;98877.88;;;4.57;91.13
85683;BME280;76253;52.232;5.176;2024-02-23T09:22:16;98870.09;;;4.48;90.48
85683;BME280;76253;52.232;5.176;2024-02-23T09:24:41;98872.31;;;4.43;90.79
85683;BME280;76253;52.232;5.176;2024-02-23T09:27:08;98867.53;;;4.38;91.26
85683;BME280;76253;52.232;5.176;2024-02-23T09:29:35;98880.81;;;4.35;91.34
85683;BME280;76253;52.232;5.176;2024-02-23T09:32:00;98873.00;;;4.35;91.51
85683;BME280;76253;52.232;5.176;2024-02-23T09:34:26;98884.78;;;4.39;91.41
85683;BME280;76253;52.232;5.176;2024-02-23T09:36:52;98880.13;;;4.43;91.61
85683;BME280;76253;52.232;5.176;2024-02-23T09:39:17;98874.50;;;4.47;91.47
85683;BME280;76253;52.232;5.176;2024-02-23T09:41:43;98872.81;;;4.56;91.70
85683;BME280;76253;52.232;5.176;2024-02-23T09:44:10;98887.88;;;4.62;91.48
85683;BME280;76253;52.232;5.176;2024-02-23T09:46:40;98876.06;;;4.67;91.84
85683;BME280;76253;52.232;5.176;2024-02-23T09:49:08;98866.56;;;4.76;91.42
85683;BME280;76253;52.232;5.176;2024-02-23T09:51:36;98862.81;;;4.88;91.64
85683;BME280;76253;52.232;5.176;2024-02-23T09:54:02;98886.31;;;5.06;91.40
85683;BME280;76253;52.232;5.176;2024-02-23T09:56:28;98889.13;;;5.22;91.03
85683;BME280;76253;52.232;5.176;2024-02-23T09:59:01;98897.53;;;5.34;90.85
85683;BME280;76253;52.232;5.176;2024-02-23T10:01:28;98900.97;;;5.34;90.42
85683;BME280;76253;52.232;5.176;2024-02-23T10:04:05;98900.16;;;5.34;89.94
85683;BME280;76253;52.232;5.176;2024-02-23T10:06:31;98907.31;;;5.32;89.88
85683;BME280;76253;52.232;5.176;2024-02-23T10:08:57;98896.88;;;5.32;89.39
85683;BME280;76253;52.232;5.176;2024-02-23T10:11:23;98894.94;;;5.34;89.88
85683;BME280;76253;52.232;5.176;2024-02-23T10:13:50;98904.41;;;5.35;89.53
85683;BME280;76253;52.232;5.176;2024-02-23T10:16:18;98908.34;;;5.39;89.41
85683;BME280;76253;52.232;5.176;2024-02-23T10:18:46;98905.09;;;5.37;89.52
85683;BME280;76253;52.232;5.176;2024-02-23T10:21:12;98899.31;;;5.33;89.81
85683;BME280;76253;52.232;5.176;2024-02-23T10:23:37;98903.75;;;5.33;89.80
85683;BME280;76253;52.232;5.176;2024-02-23T10:26:05;98908.97;;;5.33;89.00
85683;BME280;76253;52.232;5.176;2024-02-23T10:28:30;98910.00;;;5.40;88.84
85683;BME280;76253;52.232;5.176;2024-02-23T10:30:56;98905.16;;;5.45;89.04
85683;BME280;76253;52.232;5.176;2024-02-23T10:33:23;98901.97;;;5.51;88.76
85683;BME280;76253;52.232;5.176;2024-02-23T10:35:56;98917.06;;;5.57;89.02
85683;BME280;76253;52.232;5.176;2024-02-23T10:38:23;98906.31;;;5.60;88.71
85683;BME280;76253;52.232;5.176;2024-02-23T10:40:49;98921.22;;;5.68;88.45
85683;BME280;76253;52.232;5.176;2024-02-23T10:43:19;98941.13;;;5.69;88.37
85683;BME280;76253;52.232;5.176;2024-02-23T10:45:46;98915.72;;;5.71;88.27
85683;BME280;76253;52.232;5.176;2024-02-23T10:48:12;98929.00;;;5.77;88.70
85683;BME280;76253;52.232;5.176;2024-02-23T10:50:40;98933.59;;;5.83;88.61
85683;BME280;76253;52.232;5.176;2024-02-23T10:53:10;98937.03;;;5.84;87.49
85683;BME280;76253;52.232;5.176;2024-02-23T10:55:37;98930.94;;;5.93;86.95
85683;BME280;76253;52.232;5.176;2024-02-23T10:58:06;98934.31;;;6.03;86.64
85683;BME280;76253;52.232;5.176;2024-02-23T11:00:37;98942.00;;;6.04;86.49
85683;BME280;76253;52.232;5.176;2024-02-23T11:03:03;98945.34;;;6.15;86.01
85683;BME280;76253;52.232;5.176;2024-02-23T11:05:32;98946.38;;;6.22;86.51
85683;BME280;76253;52.232;5.176;2024-02-23T11:07:57;98931.00;;;6.19;84.86
85683;BME280;76253;52.232;5.176;2024-02-23T11:10:24;98929.91;;;6.21;84.79
85683;BME280;76253;52.232;5.176;2024-02-23T11:13:00;98941.97;;;6.40;84.83
85683;BME280;76253;52.232;5.176;2024-02-23T11:15:29;98955.69;;;6.42;83.74
85683;BME280;76253;52.232;5.176;2024-02-23T11:17:55;98916.28;;;6.35;83.79
85683;BME280;76253;52.232;5.176;2024-02-23T11:20:20;98934.38;;;6.55;83.51
85683;BME280;76253;52.232;5.176;2024-02-23T11:22:54;98946.41;;;6.47;82.99
85683;BME280;76253;52.232;5.176;2024-02-23T11:25:20;98944.88;;;6.63;82.43
85683;BME280;76253;52.232;5.176;2024-02-23T11:27:52;98950.00;;;6.72;83.26
85683;BME280;76253;52.232;5.176;2024-02-23T11:30:18;98953.31;;;6.74;82.28
85683;BME280;76253;52.232;5.176;2024-02-23T11:32:45;98942.69;;;6.76;82.47
85683;BME280;76253;52.232;5.176;2024-02-23T11:35:17;98976.13;;;6.90;82.37
85683;BME280;76253;52.232;5.176;2024-02-23T11:37:48;98949.03;;;6.99;81.41
85683;BME280;76253;52.232;5.176;2024-02-23T11:40:14;98952.16;;;7.11;81.20
85683;BME280;76253;52.232;5.176;2024-02-23T11:42:43;98959.03;;;7.12;80.41
85683;BME280;76253;52.232;5.176;2024-02-23T11:45:09;98963.03;;;7.24;80.89
85683;BME280;76253;52.232;5.176;2024-02-23T11:47:36;98969.59;;;7.28;80.45
85683;BME280;76253;52.232;5.176;2024-02-23T11:50:02;98965.69;;;7.32;80.26
85683;BME280;76253;52.232;5.176;2024-02-23T11:52:27;98975.31;;;7.23;79.16
85683;BME280;76253;52.232;5.176;2024-02-23T11:54:53;98973.47;;;7.16;79.14
85683;BME280;76253;52.232;5.176;2024-02-23T11:57:18;98984.94;;;7.15;79.15
85683;BME280;76253;52.232;5.176;2024-02-23T11:59:44;98983.28;;;7.14;79.79
85683;BME280;76253;52.232;5.176;2024-02-23T12:02:09;98986.88;;;7.13;80.48
85683;BME280;76253;52.232;5.176;2024-02-23T12:04:34;98988.38;;;7.15;79.67
85683;BME280;76253;52.232;5.176;2024-02-23T12:07:00;98976.59;;;7.19;78.87
85683;BME280;76253;52.232;5.176;2024-02-23T12:09:26;98976.97;;;7.32;79.73
85683;BME280;76253;52.232;5.176;2024-02-23T12:11:51;98977.81;;;7.41;80.09
85683;BME280;76253;52.232;5.176;2024-02-23T12:14:17;98984.44;;;7.53;79.95
85683;BME280;76253;52.232;5.176;2024-02-23T12:16:42;98968.03;;;7.51;77.48
85683;BME280;76253;52.232;5.176;2024-02-23T12:19:08;98983.28;;;7.56;78.53
85683;BME280;76253;52.232;5.176;2024-02-23T12:21:34;98971.19;;;7.63;79.42
85683;BME280;76253;52.232;5.176;2024-02-23T12:24:04;98973.47;;;7.58;78.27
85683;BME280;76253;52.232;5.176;2024-02-23T12:26:29;98976.41;;;7.55;78.24
85683;BME280;76253;52.232;5.176;2024-02-23T12:29:00;98975.13;;;7.59;78.26
85683;BME280;76253;52.232;5.176;2024-02-23T12:31:26;98998.84;;;7.57;78.66
85683;BME280;76253;52.232;5.176;2024-02-23T12:33:51;98991.66;;;7.59;78.43
85683;BME280;76253;52.232;5.176;2024-02-23T12:36:17;98997.72;;;7.68;78.26
85683;BME280;76253;52.232;5.176;2024-02-23T12:38:43;98997.47;;;7.87;78.74
85683;BME280;76253;52.232;5.176;2024-02-23T12:41:09;98992.75;;;8.07;78.38
85683;BME280;76253;52.232;5.176;2024-02-23T12:43:34;98991.00;;;8.32;75.62
85683;BME280;76253;52.232;5.176;2024-02-23T12:45:59;98994.09;;;8.59;78.18
85683;BME280;76253;52.232;5.176;2024-02-23T12:48:28;98996.47;;;9.09;78.37
85683;BME280;76253;52.232;5.176;2024-02-23T12:50:53;98999.72;;;9.20;74.19
85683;BME280;76253;52.232;5.176;2024-02-23T12:53:36;99009.28;;;9.13;74.52
85683;BME280;76253;52.232;5.176;2024-02-23T12:56:04;99000.94;;;9.01;73.84
85683;BME280;76253;52.232;5.176;2024-02-23T12:58:32;98996.22;;;8.72;74.98
85683;BME280;76253;52.232;5.176;2024-02-23T13:00:58;99052.31;;;8.71;75.50
85683;BME280;76253;52.232;5.176;2024-02-23T13:03:24;99014.44;;;8.57;72.30
85683;BME280;76253;52.232;5.176;2024-02-23T13:05:53;99022.47;;;8.56;75.55